createdAt,value
2018-03-27T00:00:55.485Z,21.50
2018-03-27T00:01:55.473Z,21.50
2018-03-27T00:02:55.453Z,21.80
2018-03-27T00:03:55.425Z,22.10
2018-03-27T00:04:55.395Z,20.50
2018-03-27T00:05:55.363Z,21.80
2018-03-27T00:06:55.354Z,21.70
2018-03-27T00:07:55.306Z,22.50
2018-03-27T00:08:55.280Z,22.70
2018-03-27T00:09:55.272Z,21.50
2018-03-27T00:10:55.232Z,22.60
2018-03-27T00:11:55.206Z,20.80
2018-03-27T00:12:55.179Z,21.80
2018-03-27T00:13:55.154Z,21.60
2018-03-27T00:14:55.136Z,22.10
2018-03-27T00:15:55.104Z,21.10
2018-03-27T00:16:55.077Z,22.60
2018-03-27T00:17:55.057Z,21.50
2018-03-27T00:18:55.040Z,20.70
2018-03-27T00:19:55.005Z,21.70
2018-03-27T00:20:54.986Z,23.20
2018-03-27T00:21:54.963Z,21.50
2018-03-27T00:22:54.943Z,22.10
2018-03-27T00:23:54.911Z,21.50
2018-03-27T00:24:54.873Z,22.40
2018-03-27T00:25:54.847Z,20.80
2018-03-27T00:26:54.835Z,21.80
2018-03-27T00:27:54.799Z,21.10
2018-03-27T00:28:54.808Z,23.20
2018-03-27T00:29:54.760Z,22.10
2018-03-27T00:30:54.733Z,21.60
2018-03-27T00:31:54.709Z,22.10
2018-03-27T00:32:54.687Z,22.30
2018-03-27T00:33:54.651Z,23.10
2018-03-27T00:34:54.624Z,22.20
2018-03-27T00:35:54.608Z,23.80
2018-03-27T00:36:54.571Z,23.10
2018-03-27T00:37:54.546Z,21.50
2018-03-27T00:38:54.537Z,22.50
2018-03-27T00:39:54.501Z,22.80
2018-03-27T00:40:54.492Z,21.30
2018-03-27T00:41:54.443Z,23.10
2018-03-27T00:42:54.418Z,21.80
2018-03-27T00:43:54.394Z,23.00
2018-03-27T00:44:54.375Z,22.80
2018-03-27T00:45:54.342Z,24.50
2018-03-27T00:46:54.328Z,22.00
2018-03-27T00:47:54.292Z,23.00
2018-03-27T00:48:54.266Z,22.90
2018-03-27T00:49:54.253Z,23.00
2018-03-27T00:50:54.215Z,24.00
2018-03-27T00:51:54.210Z,22.60
2018-03-27T00:52:54.165Z,22.40
2018-03-27T00:53:54.151Z,24.10
2018-03-27T00:54:54.115Z,22.80
2018-03-27T00:55:54.089Z,22.70
2018-03-27T00:56:54.062Z,22.30
2018-03-27T00:57:54.040Z,22.20
2018-03-27T00:58:54.025Z,24.50
2018-03-27T00:59:53.988Z,23.30
2018-03-27T01:00:53.974Z,23.00
2018-03-27T01:01:53.948Z,23.30
2018-03-27T01:02:53.925Z,25.70
2018-03-27T01:03:53.890Z,25.90
2018-03-27T01:04:53.872Z,23.10
2018-03-27T01:05:53.848Z,23.50
2018-03-27T01:06:53.815Z,23.40
2018-03-27T01:07:53.800Z,22.00
2018-03-27T01:08:53.758Z,23.30
2018-03-27T01:09:53.736Z,23.50
2018-03-27T01:10:53.742Z,24.00
2018-03-27T01:11:53.688Z,22.80
2018-03-27T01:12:53.659Z,23.10
2018-03-27T01:13:53.650Z,23.10
2018-03-27T01:14:53.612Z,23.40
2018-03-27T01:15:53.580Z,24.50
2018-03-27T01:16:53.554Z,26.00
2018-03-27T01:17:53.526Z,23.40
2018-03-27T01:18:53.501Z,23.60
2018-03-27T01:19:53.478Z,23.90
2018-03-27T01:20:53.453Z,24.20
2018-03-27T01:21:53.425Z,22.40
2018-03-27T01:22:53.400Z,23.20
2018-03-27T01:23:53.379Z,23.60
2018-03-27T01:24:53.359Z,23.80
2018-03-27T01:25:53.324Z,23.90
2018-03-27T01:26:53.303Z,23.20
2018-03-27T01:27:53.281Z,25.10
2018-03-27T01:28:53.258Z,24.70
2018-03-27T01:29:53.229Z,25.50
2018-03-27T01:30:53.200Z,24.60
2018-03-27T01:31:53.177Z,23.30
2018-03-27T01:32:53.147Z,25.00
2018-03-27T01:33:53.135Z,23.80
2018-03-27T01:34:53.101Z,24.40
2018-03-27T01:35:53.075Z,24.90
2018-03-27T01:36:53.052Z,23.80
2018-03-27T01:37:53.026Z,25.20
2018-03-27T01:38:53.024Z,25.10
2018-03-27T01:39:52.975Z,24.40
2018-03-27T01:40:52.955Z,25.20
2018-03-27T01:41:52.925Z,23.60
2018-03-27T01:42:52.902Z,25.10
2018-03-27T01:43:52.876Z,25.30
2018-03-27T01:44:52.850Z,24.70
2018-03-27T01:45:52.831Z,23.90
2018-03-27T01:46:52.807Z,24.90
2018-03-27T01:47:52.786Z,23.40
2018-03-27T01:48:52.748Z,23.20
2018-03-27T01:49:52.726Z,24.60
2018-03-27T01:50:52.699Z,25.20
2018-03-27T01:51:52.679Z,25.10
2018-03-27T01:52:52.653Z,25.90
2018-03-27T01:53:52.627Z,24.80
2018-03-27T01:54:52.607Z,25.60
2018-03-27T01:55:52.576Z,26.40
2018-03-27T01:56:52.550Z,26.10
2018-03-27T01:57:52.537Z,25.10
2018-03-27T01:58:52.502Z,24.60
2018-03-27T01:59:52.478Z,24.70
2018-03-27T02:00:52.450Z,25.80
2018-03-27T02:01:52.422Z,25.20
2018-03-27T02:02:52.401Z,25.50
2018-03-27T02:03:52.373Z,25.70
2018-03-27T02:04:52.366Z,26.30
2018-03-27T02:05:52.334Z,26.30
2018-03-27T02:06:52.301Z,27.40
2018-03-27T02:07:52.302Z,27.10
2018-03-27T02:08:52.254Z,26.10
2018-03-27T02:09:52.230Z,24.10
2018-03-27T02:10:52.201Z,26.70
2018-03-27T02:11:52.177Z,25.60
2018-03-27T02:12:52.154Z,26.90
2018-03-27T02:13:52.128Z,25.70
2018-03-27T02:14:52.116Z,25.10
2018-03-27T02:15:52.097Z,25.50
2018-03-27T02:16:52.051Z,25.20
2018-03-27T02:17:52.031Z,26.80
2018-03-27T02:18:52.018Z,27.50
2018-03-27T02:19:51.978Z,26.80
2018-03-27T02:20:51.949Z,26.70
2018-03-27T02:21:51.927Z,26.60
2018-03-27T02:22:51.936Z,25.60
2018-03-27T02:23:51.889Z,28.20
2018-03-27T02:24:51.852Z,26.90
2018-03-27T02:25:51.831Z,27.40
2018-03-27T02:26:51.803Z,27.90
2018-03-27T02:27:51.775Z,28.80
2018-03-27T02:28:51.753Z,29.00
2018-03-27T02:29:51.728Z,30.50
2018-03-27T02:30:51.712Z,30.20
2018-03-27T02:31:51.682Z,30.10
2018-03-27T02:32:51.659Z,29.80
2018-03-27T02:33:51.632Z,29.30
2018-03-27T02:34:51.700Z,31.30
2018-03-27T02:35:51.577Z,29.50
2018-03-27T02:36:51.568Z,29.30
2018-03-27T02:37:51.530Z,29.80
2018-03-27T02:38:51.502Z,30.30
2018-03-27T02:39:51.477Z,31.00
2018-03-27T02:40:51.465Z,31.50
2018-03-27T02:41:51.434Z,32.90
2018-03-27T02:42:51.404Z,29.60
2018-03-27T02:43:51.374Z,31.90
2018-03-27T02:44:51.360Z,31.00
2018-03-27T02:45:51.328Z,32.30
2018-03-27T02:46:51.311Z,30.90
2018-03-27T02:47:51.292Z,31.20
2018-03-27T02:48:51.262Z,33.30
2018-03-27T02:49:51.226Z,31.50
2018-03-27T02:50:51.199Z,33.30
2018-03-27T02:51:51.183Z,32.30
2018-03-27T02:52:51.152Z,33.60
2018-03-27T02:53:51.137Z,31.80
2018-03-27T02:54:51.102Z,33.10
2018-03-27T02:55:51.080Z,32.80
2018-03-27T02:56:51.054Z,31.20
2018-03-27T02:57:51.033Z,31.40
2018-03-27T02:58:51.002Z,31.40
2018-03-27T02:59:50.976Z,33.20
2018-03-27T03:00:50.953Z,32.80
2018-03-27T03:01:50.931Z,31.40
2018-03-27T03:02:50.911Z,32.10
2018-03-27T03:03:50.881Z,30.80
2018-03-27T03:04:50.854Z,32.20
2018-03-27T03:05:50.830Z,31.90
2018-03-27T03:06:50.808Z,31.40
2018-03-27T03:07:50.781Z,31.80
2018-03-27T03:08:50.753Z,32.70
2018-03-27T03:09:50.722Z,33.10
2018-03-27T03:10:50.700Z,32.70
2018-03-27T03:11:50.676Z,33.90
2018-03-27T03:12:50.651Z,32.40
2018-03-27T03:13:50.625Z,34.60
2018-03-27T03:14:50.599Z,31.10
2018-03-27T03:15:50.571Z,32.40
2018-03-27T03:16:50.548Z,32.20
2018-03-27T03:17:50.526Z,32.50
2018-03-27T03:18:50.502Z,31.30
2018-03-27T03:19:50.473Z,32.90
2018-03-27T03:20:50.443Z,32.70
2018-03-27T03:21:50.419Z,31.00
2018-03-27T03:22:50.392Z,31.90
2018-03-27T03:23:50.393Z,32.50
2018-03-27T03:24:50.352Z,32.40
2018-03-27T03:25:50.315Z,33.10
2018-03-27T03:26:50.297Z,33.70
2018-03-27T03:27:50.263Z,32.30
2018-03-27T03:28:50.240Z,33.00
2018-03-27T03:29:50.216Z,33.20
2018-03-27T03:30:50.192Z,33.80
2018-03-27T03:31:50.164Z,32.90
2018-03-27T03:32:50.136Z,31.70
2018-03-27T03:33:50.113Z,35.70
2018-03-27T03:34:50.084Z,33.40
2018-03-27T03:35:50.057Z,35.40
2018-03-27T03:36:50.031Z,34.90
2018-03-27T03:37:50.007Z,33.90
2018-03-27T03:38:49.982Z,33.80
2018-03-27T03:39:49.954Z,32.30
2018-03-27T03:40:49.950Z,33.20
2018-03-27T03:41:49.899Z,31.80
2018-03-27T03:42:49.879Z,33.00
2018-03-27T03:43:49.848Z,34.40
2018-03-27T03:44:49.826Z,35.00
2018-03-27T03:45:49.810Z,34.40
2018-03-27T03:46:49.769Z,34.10
2018-03-27T03:47:49.748Z,33.80
2018-03-27T03:48:49.725Z,33.10
2018-03-27T03:49:49.711Z,33.70
2018-03-27T03:50:49.674Z,34.00
2018-03-27T03:51:49.647Z,35.00
2018-03-27T03:52:49.626Z,32.70
2018-03-27T03:53:49.592Z,35.30
2018-03-27T03:54:49.568Z,36.00
2018-03-27T03:55:49.549Z,35.30
2018-03-27T03:56:49.513Z,35.30
2018-03-27T03:57:49.493Z,34.80
2018-03-27T03:58:49.460Z,35.80
2018-03-27T03:59:49.438Z,32.30
2018-03-27T04:00:49.429Z,34.40
2018-03-27T04:01:49.382Z,35.20
2018-03-27T04:02:49.358Z,35.80
2018-03-27T04:03:49.331Z,35.10
2018-03-27T04:04:49.314Z,34.70
2018-03-27T04:05:49.281Z,35.20
2018-03-27T04:06:49.252Z,34.60
2018-03-27T04:07:49.233Z,37.10
2018-03-27T04:08:49.201Z,35.60
2018-03-27T04:09:49.179Z,35.50
2018-03-27T04:10:49.168Z,33.80
2018-03-27T04:11:49.126Z,35.10
2018-03-27T04:12:49.095Z,34.80
2018-03-27T04:13:49.075Z,36.10
2018-03-27T04:14:49.044Z,35.70
2018-03-27T04:15:49.055Z,35.50
2018-03-27T04:16:48.994Z,36.70
2018-03-27T04:17:48.967Z,36.10
2018-03-27T04:18:48.944Z,34.90
2018-03-27T04:19:48.943Z,37.40
2018-03-27T04:20:48.887Z,34.10
2018-03-27T04:21:48.858Z,36.30
2018-03-27T04:22:48.844Z,37.90
2018-03-27T04:23:48.817Z,34.10
2018-03-27T04:24:48.781Z,38.00
2018-03-27T04:25:48.760Z,36.90
2018-03-27T04:26:48.740Z,36.00
2018-03-27T04:27:48.703Z,36.40
2018-03-27T04:28:48.677Z,37.50
2018-03-27T04:29:48.651Z,38.60
2018-03-27T04:30:48.632Z,36.50
2018-03-27T04:31:48.596Z,38.40
2018-03-27T04:32:48.576Z,37.60
2018-03-27T04:33:48.546Z,37.10
2018-03-27T04:34:48.530Z,37.20
2018-03-27T04:35:48.499Z,36.10
2018-03-27T04:36:48.475Z,36.40
2018-03-27T04:37:48.469Z,35.10
2018-03-27T04:38:48.417Z,37.80
2018-03-27T04:39:48.390Z,35.80
2018-03-27T04:40:48.377Z,36.10
2018-03-27T04:41:48.342Z,37.30
2018-03-27T04:42:48.313Z,36.40
2018-03-27T04:43:48.283Z,38.60
2018-03-27T04:44:48.261Z,35.90
2018-03-27T04:45:48.235Z,36.40
2018-03-27T04:46:48.206Z,37.00
2018-03-27T04:47:48.182Z,37.80
2018-03-27T04:48:48.151Z,36.70
2018-03-27T04:49:48.124Z,37.80
2018-03-27T04:50:48.100Z,38.00
2018-03-27T04:51:48.074Z,38.00
2018-03-27T04:52:48.045Z,37.00
2018-03-27T04:53:48.024Z,37.30
2018-03-27T04:54:47.995Z,37.30
2018-03-27T04:55:47.968Z,36.70
2018-03-27T04:56:47.934Z,38.60
2018-03-27T04:57:47.911Z,37.80
2018-03-27T04:58:47.892Z,38.40
2018-03-27T04:59:47.857Z,39.10
2018-03-27T05:00:47.831Z,39.30
2018-03-27T05:01:47.806Z,40.20
2018-03-27T05:02:47.773Z,39.20
2018-03-27T05:03:47.755Z,40.70
2018-03-27T05:04:47.726Z,40.50
2018-03-27T05:05:47.695Z,40.30
2018-03-27T05:06:47.671Z,41.40
2018-03-27T05:07:47.641Z,41.10
2018-03-27T05:08:47.617Z,40.40
2018-03-27T05:09:47.596Z,40.90
2018-03-27T05:10:47.587Z,39.80
2018-03-27T05:11:47.536Z,42.20
2018-03-27T05:12:47.513Z,40.90
2018-03-27T05:13:47.492Z,40.80
2018-03-27T05:14:47.454Z,40.70
2018-03-27T05:15:47.430Z,41.50
2018-03-27T05:16:47.411Z,38.80
2018-03-27T05:17:47.378Z,43.50
2018-03-27T05:18:47.352Z,40.70
2018-03-27T05:19:47.327Z,42.50
2018-03-27T05:20:47.314Z,43.20
2018-03-27T05:21:47.272Z,44.10
2018-03-27T05:22:47.257Z,43.60
2018-03-27T05:23:47.224Z,44.00
2018-03-27T05:24:47.190Z,45.00
2018-03-27T05:25:47.162Z,43.70
2018-03-27T05:26:47.135Z,46.10
2018-03-27T05:27:47.109Z,44.70
2018-03-27T05:28:47.088Z,45.60
2018-03-27T05:29:47.066Z,46.70
2018-03-27T05:30:47.034Z,44.70
2018-03-27T05:31:47.010Z,45.40
2018-03-27T05:32:47.029Z,44.40
2018-03-27T05:33:46.952Z,46.40
2018-03-27T05:34:46.919Z,47.00
2018-03-27T05:35:46.896Z,46.30
2018-03-27T05:36:46.871Z,45.10
2018-03-27T05:37:46.841Z,46.60
2018-03-27T05:38:46.819Z,47.70
2018-03-27T05:39:46.806Z,46.90
2018-03-27T05:40:46.760Z,45.10
2018-03-27T05:41:46.736Z,44.90
2018-03-27T05:42:46.708Z,45.10
2018-03-27T05:43:46.682Z,46.00
2018-03-27T05:44:46.652Z,45.10
2018-03-27T05:45:46.631Z,41.60
2018-03-27T05:46:46.611Z,44.70
2018-03-27T05:47:46.574Z,43.50
2018-03-27T05:48:46.548Z,45.50
2018-03-27T05:49:46.519Z,45.00
2018-03-27T05:50:46.496Z,45.80
2018-03-27T05:51:46.520Z,47.00
2018-03-27T05:52:46.430Z,45.70
2018-03-27T05:53:46.410Z,47.80
2018-03-27T05:54:46.382Z,47.70
2018-03-27T05:55:46.356Z,45.90
2018-03-27T05:56:46.329Z,47.20
2018-03-27T05:57:46.298Z,46.60
2018-03-27T05:58:46.320Z,49.30
2018-03-27T05:59:46.249Z,49.80
2018-03-27T06:00:46.218Z,49.30
2018-03-27T06:01:46.199Z,49.50
2018-03-27T06:02:46.169Z,51.30
2018-03-27T06:03:46.157Z,51.60
2018-03-27T06:04:46.117Z,52.00
2018-03-27T06:05:46.084Z,50.50
2018-03-27T06:06:46.081Z,50.20
2018-03-27T06:07:46.032Z,52.90
2018-03-27T06:08:46.005Z,54.50
2018-03-27T06:09:45.977Z,54.70
2018-03-27T06:10:45.956Z,53.00
2018-03-27T06:11:45.927Z,53.10
2018-03-27T06:12:45.903Z,56.60
2018-03-27T06:13:45.870Z,56.20
2018-03-27T06:14:45.840Z,54.20
2018-03-27T06:15:45.815Z,54.80
2018-03-27T06:16:45.784Z,56.00
2018-03-27T06:17:45.760Z,57.30
2018-03-27T06:18:45.762Z,55.90
2018-03-27T06:19:45.708Z,54.60
2018-03-27T06:20:45.684Z,55.70
2018-03-27T06:21:45.654Z,55.30
2018-03-27T06:22:45.627Z,54.70
2018-03-27T06:23:45.602Z,53.90
2018-03-27T06:24:45.571Z,53.20
2018-03-27T06:25:45.544Z,53.20
2018-03-27T06:26:45.525Z,53.60
2018-03-27T06:27:45.493Z,52.70
2018-03-27T06:28:45.463Z,52.40
2018-03-27T06:29:45.438Z,52.50
2018-03-27T06:30:45.412Z,50.20
2018-03-27T06:31:45.382Z,52.70
2018-03-27T06:32:45.362Z,50.80
2018-03-27T06:33:45.334Z,53.50
2018-03-27T06:34:45.304Z,49.50
2018-03-27T06:35:45.284Z,51.40
2018-03-27T06:36:45.249Z,50.10
2018-03-27T06:37:45.221Z,49.70
2018-03-27T06:38:45.192Z,49.10
2018-03-27T06:39:45.171Z,48.60
2018-03-27T06:40:45.141Z,46.70
2018-03-27T06:41:45.116Z,48.20
2018-03-27T06:42:45.088Z,45.60
2018-03-27T06:43:45.667Z,46.80
2018-03-27T06:44:45.049Z,47.30
2018-03-27T06:45:45.016Z,45.00
2018-03-27T06:46:44.999Z,44.80
2018-03-27T06:47:44.985Z,45.00
2018-03-27T06:48:44.927Z,45.00
2018-03-27T06:49:44.900Z,43.90
2018-03-27T06:50:44.879Z,44.10
2018-03-27T06:51:44.848Z,45.10
2018-03-27T06:52:44.820Z,43.40
2018-03-27T06:53:44.812Z,43.40
2018-03-27T06:54:44.778Z,42.60
2018-03-27T06:55:44.745Z,42.90
2018-03-27T06:56:44.725Z,42.00
2018-03-27T06:57:44.693Z,44.00
2018-03-27T06:58:44.668Z,41.60
2018-03-27T06:59:44.638Z,42.00
2018-03-27T07:00:44.613Z,39.60
2018-03-27T07:01:44.612Z,40.90
2018-03-27T07:02:44.585Z,39.10
2018-03-27T07:03:44.554Z,40.80
2018-03-27T07:04:44.509Z,40.60
2018-03-27T07:05:44.514Z,38.60
2018-03-27T07:06:44.457Z,39.80
2018-03-27T07:07:44.429Z,39.00
2018-03-27T07:08:44.410Z,40.80
2018-03-27T07:09:44.378Z,39.40
2018-03-27T07:10:44.382Z,39.70
2018-03-27T07:11:44.335Z,39.10
2018-03-27T07:12:44.326Z,38.10
2018-03-27T07:13:44.274Z,37.60
2018-03-27T07:14:44.245Z,40.00
2018-03-27T07:15:44.222Z,39.40
2018-03-27T07:16:44.204Z,38.70
2018-03-27T07:17:44.162Z,38.70
2018-03-27T07:18:44.152Z,38.50
2018-03-27T07:19:44.160Z,37.70
2018-03-27T07:20:44.117Z,37.90
2018-03-27T07:21:44.067Z,35.10
2018-03-27T07:22:44.035Z,37.50
2018-03-27T07:23:44.032Z,37.60
2018-03-27T07:24:43.984Z,37.90
2018-03-27T07:25:43.961Z,37.80
2018-03-27T07:26:43.937Z,37.80
2018-03-27T07:27:43.915Z,38.50
2018-03-27T07:28:43.885Z,38.70
2018-03-27T07:29:43.861Z,37.90
2018-03-27T07:30:43.831Z,37.40
2018-03-27T07:31:43.810Z,37.20
2018-03-27T07:32:43.785Z,38.50
2018-03-27T07:33:43.750Z,35.10
2018-03-27T07:34:43.740Z,38.60
2018-03-27T07:35:43.712Z,37.80
2018-03-27T07:36:43.679Z,34.70
2018-03-27T07:37:43.656Z,35.30
2018-03-27T07:38:43.631Z,35.00
2018-03-27T07:39:43.607Z,35.30
2018-03-27T07:40:43.576Z,32.90
2018-03-27T07:41:43.559Z,32.00
2018-03-27T07:42:43.539Z,34.50
2018-03-27T07:43:43.511Z,32.70
2018-03-27T07:44:43.485Z,34.10
2018-03-27T07:45:43.457Z,31.10
2018-03-27T07:46:43.429Z,31.60
2018-03-27T07:47:43.426Z,32.80
2018-03-27T07:48:43.384Z,34.10
2018-03-27T07:49:43.357Z,32.70
2018-03-27T07:50:43.336Z,31.10
2018-03-27T07:51:43.308Z,31.60
2018-03-27T07:52:43.287Z,33.90
2018-03-27T07:53:43.256Z,34.30
2018-03-27T07:54:43.233Z,35.60
2018-03-27T07:55:43.213Z,34.10
2018-03-27T07:56:43.183Z,32.50
2018-03-27T07:57:43.177Z,32.20
2018-03-27T07:58:43.139Z,32.50
2018-03-27T07:59:43.122Z,35.60
2018-03-27T08:00:43.094Z,34.60
2018-03-27T08:01:43.077Z,32.90
2018-03-27T08:02:43.051Z,33.40
2018-03-27T08:03:43.021Z,32.40
2018-03-27T08:04:42.999Z,35.20
2018-03-27T08:05:42.974Z,32.70
2018-03-27T08:06:42.953Z,33.50
2018-03-27T08:07:42.946Z,33.90
2018-03-27T08:08:42.906Z,32.30
2018-03-27T08:09:42.879Z,32.90
2018-03-27T08:10:42.858Z,31.60
2018-03-27T08:11:42.838Z,30.30
2018-03-27T08:12:42.816Z,32.70
2018-03-27T08:13:42.790Z,32.90
2018-03-27T08:14:42.774Z,32.70
2018-03-27T08:15:42.753Z,31.60
2018-03-27T08:16:42.719Z,31.90
2018-03-27T08:17:42.724Z,31.60
2018-03-27T08:18:42.684Z,33.00
2018-03-27T08:19:42.664Z,33.90
2018-03-27T08:20:42.636Z,33.20
2018-03-27T08:21:42.620Z,32.90
2018-03-27T08:22:42.602Z,31.40
2018-03-27T08:23:42.583Z,31.90
2018-03-27T08:24:42.554Z,29.90
2018-03-27T08:25:42.533Z,31.00
2018-03-27T08:26:42.520Z,31.50
2018-03-27T08:27:42.489Z,30.80
2018-03-27T08:28:42.465Z,30.40
2018-03-27T08:29:42.456Z,31.90
2018-03-27T08:30:42.424Z,31.10
2018-03-27T08:31:42.406Z,33.60
2018-03-27T08:32:42.380Z,32.10
2018-03-27T08:33:42.360Z,34.40
2018-03-27T08:34:42.344Z,31.90
2018-03-27T08:35:42.313Z,31.10
2018-03-27T08:36:42.297Z,31.60
2018-03-27T08:37:42.286Z,34.10
2018-03-27T08:38:42.250Z,33.80
2018-03-27T08:39:42.239Z,32.90
2018-03-27T08:40:42.213Z,34.20
2018-03-27T08:41:42.192Z,32.90
2018-03-27T08:42:42.162Z,33.30
2018-03-27T08:43:42.147Z,32.70
2018-03-27T08:44:42.126Z,32.90
2018-03-27T08:45:42.099Z,33.40
2018-03-27T08:46:42.074Z,33.90
2018-03-27T08:47:42.056Z,33.80
2018-03-27T08:48:42.056Z,34.10
2018-03-27T08:49:42.013Z,33.40
2018-03-27T08:50:41.989Z,32.30
2018-03-27T08:51:41.970Z,32.10
2018-03-27T08:52:41.957Z,35.50
2018-03-27T08:53:41.921Z,33.90
2018-03-27T08:54:41.904Z,35.00
2018-03-27T08:55:41.881Z,34.40
2018-03-27T08:56:41.858Z,35.00
2018-03-27T08:57:41.838Z,34.20
2018-03-27T08:58:41.819Z,33.50
2018-03-27T08:59:41.799Z,32.10
2018-03-27T09:00:41.822Z,33.60
2018-03-27T09:01:41.751Z,33.30
2018-03-27T09:02:41.735Z,31.80
2018-03-27T09:03:41.756Z,31.50
2018-03-27T09:04:41.691Z,33.10
2018-03-27T09:05:41.675Z,33.30
2018-03-27T09:06:41.658Z,33.20
2018-03-27T09:07:41.634Z,33.30
2018-03-27T09:08:41.612Z,32.90
2018-03-27T09:09:41.593Z,33.50
2018-03-27T09:10:41.583Z,30.70
2018-03-27T09:11:41.555Z,31.80
2018-03-27T09:12:41.535Z,30.40
2018-03-27T09:13:41.518Z,29.40
2018-03-27T09:14:41.501Z,30.00
2018-03-27T09:15:41.486Z,31.50
2018-03-27T09:16:41.460Z,31.60
2018-03-27T09:17:41.443Z,32.50
2018-03-27T09:18:41.429Z,31.30
2018-03-27T09:19:41.405Z,33.30
2018-03-27T09:20:41.386Z,34.10
2018-03-27T09:21:41.367Z,32.50
2018-03-27T09:22:41.366Z,31.30
2018-03-27T09:23:41.344Z,33.30
2018-03-27T09:24:41.310Z,33.60
2018-03-27T09:25:41.292Z,33.00
2018-03-27T09:26:41.288Z,30.20
2018-03-27T09:27:41.263Z,31.30
2018-03-27T09:28:41.266Z,31.30
2018-03-27T09:29:41.228Z,32.30
2018-03-27T09:30:41.216Z,32.80
2018-03-27T09:31:41.199Z,31.20
2018-03-27T09:32:41.176Z,27.20
2018-03-27T09:33:41.161Z,31.60
2018-03-27T09:34:41.143Z,31.30
2018-03-27T09:35:41.127Z,30.10
2018-03-27T09:36:41.106Z,31.10
2018-03-27T09:37:41.094Z,31.50
2018-03-27T09:38:41.073Z,30.00
2018-03-27T09:39:41.059Z,32.10
2018-03-27T09:40:41.039Z,30.80
2018-03-27T09:41:41.019Z,30.90
2018-03-27T09:42:41.013Z,33.30
2018-03-27T09:43:40.991Z,32.00
2018-03-27T09:44:40.983Z,31.70
2018-03-27T09:45:40.956Z,33.60
2018-03-27T09:46:40.943Z,34.80
2018-03-27T09:47:40.927Z,35.90
2018-03-27T09:48:40.906Z,35.90
2018-03-27T09:49:40.887Z,33.60
2018-03-27T09:50:40.873Z,33.50
2018-03-27T09:51:40.851Z,32.20
2018-03-27T09:52:40.839Z,34.00
2018-03-27T09:53:40.817Z,36.90
2018-03-27T09:54:40.800Z,36.10
2018-03-27T09:55:40.792Z,41.10
2018-03-27T09:56:40.774Z,39.00
2018-03-27T09:57:40.760Z,40.90
2018-03-27T09:58:40.736Z,41.20
2018-03-27T09:59:40.726Z,42.80
2018-03-27T10:00:40.701Z,43.20
2018-03-27T10:01:40.688Z,42.50
2018-03-27T10:02:40.667Z,44.00
2018-03-27T10:03:40.667Z,45.10
2018-03-27T10:04:40.640Z,46.10
2018-03-27T10:05:40.621Z,46.50
2018-03-27T10:06:40.604Z,44.40
2018-03-27T10:07:40.588Z,44.40
2018-03-27T10:08:40.571Z,46.10
2018-03-27T10:09:40.555Z,44.50
2018-03-27T10:10:40.541Z,45.80
2018-03-27T10:11:40.521Z,45.90
2018-03-27T10:12:40.506Z,45.90
2018-03-27T10:13:40.490Z,46.10
2018-03-27T10:14:40.475Z,46.60
2018-03-27T10:15:40.458Z,45.70
2018-03-27T10:16:40.440Z,45.50
2018-03-27T10:17:40.429Z,46.60
2018-03-27T10:18:40.410Z,45.70
2018-03-27T10:19:40.395Z,45.90
2018-03-27T10:20:40.370Z,44.50
2018-03-27T10:21:40.359Z,46.20
2018-03-27T10:22:40.342Z,45.50
2018-03-27T10:23:40.337Z,44.70
2018-03-27T10:24:40.307Z,43.10
2018-03-27T10:25:40.299Z,44.20
2018-03-27T10:26:40.279Z,45.00
2018-03-27T10:27:40.264Z,43.60
2018-03-27T10:28:40.255Z,44.80
2018-03-27T10:29:40.231Z,43.80
2018-03-27T10:30:40.216Z,44.50
2018-03-27T10:31:40.204Z,45.10
2018-03-27T10:32:40.181Z,44.20
2018-03-27T10:33:40.169Z,45.30
2018-03-27T10:34:40.153Z,42.80
2018-03-27T10:35:40.139Z,41.60
2018-03-27T10:36:40.141Z,37.50
2018-03-27T10:37:40.108Z,37.10
2018-03-27T10:38:40.095Z,35.50
2018-03-27T10:39:40.080Z,36.80
2018-03-27T10:40:40.066Z,36.10
2018-03-27T10:41:40.048Z,36.20
2018-03-27T10:42:40.035Z,38.10
2018-03-27T10:43:40.019Z,37.70
2018-03-27T10:44:40.010Z,37.20
2018-03-27T10:45:39.990Z,40.10
2018-03-27T10:46:39.973Z,40.70
2018-03-27T10:47:39.965Z,39.60
2018-03-27T10:48:39.946Z,41.50
2018-03-27T10:49:39.959Z,38.70
2018-03-27T10:50:39.918Z,34.00
2018-03-27T10:51:39.904Z,32.90
2018-03-27T10:52:39.890Z,29.10
2018-03-27T10:53:39.877Z,28.50
2018-03-27T10:54:39.872Z,30.20
2018-03-27T10:55:39.858Z,31.70
2018-03-27T10:56:39.834Z,30.00
2018-03-27T10:57:39.825Z,30.40
2018-03-27T10:58:39.812Z,30.70
2018-03-27T10:59:39.812Z,29.50
2018-03-27T11:00:39.782Z,28.80
2018-03-27T11:01:39.767Z,28.90
2018-03-27T11:02:39.768Z,30.10
2018-03-27T11:03:39.743Z,30.30
2018-03-27T11:04:39.732Z,30.60
2018-03-27T11:05:39.715Z,27.10
2018-03-27T11:06:39.694Z,26.60
2018-03-27T11:07:39.687Z,26.90
2018-03-27T11:08:39.674Z,28.00
2018-03-27T11:09:39.662Z,28.60
2018-03-27T11:10:39.640Z,28.50
2018-03-27T11:11:39.636Z,27.60
2018-03-27T11:12:39.609Z,26.70
2018-03-27T11:13:39.605Z,25.50
2018-03-27T11:14:39.582Z,24.50
2018-03-27T11:15:39.575Z,26.10
2018-03-27T11:16:39.554Z,25.90
2018-03-27T11:17:39.537Z,25.40
2018-03-27T11:18:39.526Z,25.30
2018-03-27T11:19:39.503Z,22.60
2018-03-27T11:20:39.491Z,17.10
2018-03-27T11:21:39.476Z,14.70
2018-03-27T11:22:39.459Z,13.60
2018-03-27T11:23:39.452Z,13.10
2018-03-27T11:24:39.438Z,14.10
2018-03-27T11:25:39.410Z,15.60
2018-03-27T11:26:39.393Z,15.60
2018-03-27T11:27:39.381Z,15.60
2018-03-27T11:28:39.355Z,15.70
2018-03-27T11:29:39.345Z,16.00
2018-03-27T11:30:39.331Z,13.80
2018-03-27T11:31:39.316Z,13.70
2018-03-27T11:32:39.300Z,14.40
2018-03-27T11:33:39.287Z,14.40
2018-03-27T11:34:39.261Z,14.00
2018-03-27T11:35:39.250Z,13.90
2018-03-27T11:36:39.236Z,12.70
2018-03-27T11:37:39.217Z,13.90
2018-03-27T11:38:39.199Z,14.10
2018-03-27T11:39:39.179Z,14.60
2018-03-27T11:40:39.169Z,13.70
2018-03-27T11:41:39.149Z,13.70
2018-03-27T11:42:39.133Z,13.60
2018-03-27T11:43:39.129Z,13.20
2018-03-27T11:44:39.114Z,13.30
2018-03-27T11:45:39.088Z,12.50
2018-03-27T11:46:39.074Z,13.40
2018-03-27T11:47:39.054Z,12.60
2018-03-27T11:48:39.034Z,14.00
2018-03-27T11:49:39.022Z,13.00
2018-03-27T11:50:39.006Z,12.00
2018-03-27T11:51:38.988Z,12.90
2018-03-27T11:52:38.970Z,12.30
2018-03-27T11:53:38.985Z,12.30
2018-03-27T11:54:38.995Z,12.40
2018-03-27T11:55:38.924Z,12.30
2018-03-27T11:56:38.905Z,11.80
2018-03-27T11:57:38.888Z,12.80
2018-03-27T11:58:38.872Z,12.70
2018-03-27T11:59:38.861Z,12.10
2018-03-27T12:00:38.843Z,12.10
2018-03-27T12:01:38.891Z,12.40
2018-03-27T12:02:38.816Z,12.60
2018-03-27T12:03:38.797Z,11.30
2018-03-27T12:04:38.790Z,11.20
2018-03-27T12:05:38.767Z,11.30
2018-03-27T12:06:38.748Z,11.40
2018-03-27T12:07:38.737Z,11.80
2018-03-27T12:08:38.720Z,11.10
2018-03-27T12:09:38.722Z,11.20
2018-03-27T12:10:38.694Z,10.50
2018-03-27T12:11:38.676Z,10.80
2018-03-27T12:12:38.659Z,10.90
2018-03-27T12:13:38.643Z,10.60
2018-03-27T12:14:38.633Z,10.80
2018-03-27T12:15:38.625Z,11.10
2018-03-27T12:16:38.646Z,9.80
2018-03-27T12:17:38.591Z,10.20
2018-03-27T12:18:38.569Z,10.50
2018-03-27T12:19:38.560Z,10.90
2018-03-27T12:20:38.538Z,10.30
2018-03-27T12:21:38.531Z,10.30
2018-03-27T12:22:38.523Z,11.40
2018-03-27T12:23:38.507Z,9.80
2018-03-27T12:24:38.483Z,10.20
2018-03-27T12:25:38.467Z,9.90
2018-03-27T12:26:38.449Z,10.70
2018-03-27T12:27:38.438Z,10.90
2018-03-27T12:28:38.423Z,11.20
2018-03-27T12:29:38.400Z,10.80
2018-03-27T12:30:38.389Z,11.20
2018-03-27T12:31:38.423Z,11.20
2018-03-27T12:32:38.366Z,10.40
2018-03-27T12:33:38.341Z,10.90
2018-03-27T12:34:38.320Z,10.60
2018-03-27T12:35:38.304Z,9.40
2018-03-27T12:36:38.291Z,9.70
2018-03-27T12:37:38.277Z,10.10
2018-03-27T12:38:38.254Z,10.30
2018-03-27T12:39:38.245Z,10.60
2018-03-27T12:40:38.224Z,9.90
2018-03-27T12:41:38.209Z,10.40
2018-03-27T12:42:38.193Z,10.20
2018-03-27T12:43:38.172Z,10.20
2018-03-27T12:44:38.156Z,10.30
2018-03-27T12:45:38.135Z,11.40
2018-03-27T12:46:38.120Z,10.60
2018-03-27T12:47:38.108Z,9.60
2018-03-27T12:48:38.082Z,10.20
2018-03-27T12:49:38.069Z,10.50
2018-03-27T12:50:38.050Z,9.40
2018-03-27T12:51:38.032Z,9.30
2018-03-27T12:52:38.009Z,10.10